Time;durP1;ratioP1;P1;durP2;ratioP2;P2;SDS_P1;SDS_P2;PMS_P1;PMS_P2;Temp;Humidity;BMP_temperature;BMP_pressure;BME280_temperature;BME280_humidity;BME280_pressure;Samples;Min_cycle;Max_cycle;Signal;HPM_P1;HPM_P2
2022/06/08 00:00:38;;;;;;;6.27;3.47;;;19.60;76.30;;;;;;4887774;29;20967;-75
2022/06/08 00:03:10;;;;;;;8.47;3.93;;;19.60;76.30;;;;;;4879770;29;20850;-75
2022/06/08 00:05:38;;;;;;;6.70;3.60;;;19.60;76.40;;;;;;4864017;29;20469;-75
2022/06/08 00:08:06;;;;;;;5.93;3.63;;;19.60;76.40;;;;;;4880252;29;20554;-75
2022/06/08 00:10:34;;;;;;;6.43;4.00;;;19.60;76.40;;;;;;4875491;29;20490;-76
2022/06/08 00:13:03;;;;;;;6.77;3.50;;;19.60;76.40;;;;;;4884539;29;20491;-77
2022/06/08 00:15:32;;;;;;;6.37;4.00;;;19.60;76.40;;;;;;4867497;29;20532;-76
2022/06/08 00:18:01;;;;;;;8.27;3.60;;;19.60;76.30;;;;;;4868810;29;20491;-74
2022/06/08 00:20:29;;;;;;;5.93;3.43;;;19.60;76.30;;;;;;4871129;29;20958;-74
2022/06/08 00:22:57;;;;;;;6.57;4.07;;;19.60;76.30;;;;;;4855709;29;20927;-77
2022/06/08 00:25:26;;;;;;;6.20;3.50;;;19.60;76.30;;;;;;4879811;29;20490;-75
2022/06/08 00:27:54;;;;;;;8.77;3.57;;;19.60;76.20;;;;;;4862337;29;20498;-76
2022/06/08 00:30:24;;;;;;;6.27;3.37;;;19.50;76.20;;;;;;4884355;29;20952;-75
2022/06/08 00:32:52;;;;;;;6.23;3.83;;;19.50;76.20;;;;;;4869475;29;20462;-76
2022/06/08 00:35:20;;;;;;;8.20;4.13;;;19.50;76.30;;;;;;4887943;29;20455;-76
2022/06/08 00:37:48;;;;;;;6.73;4.33;;;19.50;76.40;;;;;;4868664;29;20511;-76
2022/06/08 00:40:19;;;;;;;6.43;3.20;;;19.50;76.50;;;;;;4859649;29;20481;-75
2022/06/08 00:42:48;;;;;;;5.83;3.60;;;19.50;76.50;;;;;;4884762;29;20463;-76
2022/06/08 00:45:20;;;;;;;8.90;3.20;;;19.50;76.50;;;;;;4867280;29;20907;-74
2022/06/08 00:47:52;;;;;;;5.70;3.53;;;19.50;76.50;;;;;;4867015;29;20544;-76
2022/06/08 00:50:23;;;;;;;6.90;3.93;;;19.50;76.50;;;;;;4865224;29;20922;-76
2022/06/08 00:52:52;;;;;;;9.60;3.37;;;19.50;76.50;;;;;;4884836;29;20988;-74
2022/06/08 00:55:24;;;;;;;11.53;3.50;;;19.50;76.50;;;;;;4879557;29;20467;-76
2022/06/08 00:57:59;;;;;;;8.23;3.10;;;19.50;76.50;;;;;;4876246;29;20487;-75
2022/06/08 01:00:29;;;;;;;6.30;3.37;;;19.50;76.50;;;;;;4868050;29;20495;-74
2022/06/08 01:02:59;;;;;;;6.77;2.87;;;19.50;76.60;;;;;;4867507;29;20972;-77
2022/06/08 01:05:39;;;;;;;5.80;3.20;;;19.50;76.60;;;;;;4874868;29;21034;-78
2022/06/08 01:08:20;;;;;;;6.37;3.50;;;19.50;76.50;;;;;;4864310;29;20484;-76
2022/06/08 01:10:51;;;;;;;5.40;2.97;;;19.50;76.60;;;;;;4873078;29;20515;-78
2022/06/08 01:13:22;;;;;;;6.03;3.33;;;19.50;76.50;;;;;;4879283;29;21020;-77
2022/06/08 01:15:51;;;;;;;9.23;3.37;;;19.50;76.50;;;;;;4869215;29;20498;-78
2022/06/08 01:18:23;;;;;;;6.23;2.80;;;19.50;76.40;;;;;;4867685;29;20665;-78
2022/06/08 01:20:55;;;;;;;7.00;2.97;;;19.50;76.40;;;;;;4866756;29;20464;-78
2022/06/08 01:23:32;;;;;;;5.30;2.83;;;19.40;76.50;;;;;;4871581;29;20468;-76
2022/06/08 01:26:14;;;;;;;6.70;3.40;;;19.40;76.50;;;;;;4881181;29;20547;-78
2022/06/08 01:28:53;;;;;;;9.80;3.17;;;19.40;76.50;;;;;;4867741;29;20488;-75
2022/06/08 01:31:31;;;;;;;7.83;3.70;;;19.40;76.30;;;;;;4862398;29;20531;-77
2022/06/08 01:34:09;;;;;;;8.00;2.90;;;19.30;76.10;;;;;;4880476;29;20985;-77
2022/06/08 01:36:57;;;;;;;6.53;3.30;;;19.20;76.00;;;;;;4867436;29;20467;-78
2022/06/08 01:39:38;;;;;;;7.23;3.00;;;19.00;76.00;;;;;;4871359;29;21036;-75
2022/06/08 01:42:25;;;;;;;7.20;4.00;;;18.90;76.20;;;;;;4863797;29;20941;-76
2022/06/08 01:45:30;;;;;;;5.60;2.87;;;18.90;76.30;;;;;;4879057;29;20475;-76
2022/06/08 01:48:13;;;;;;;5.33;2.90;;;18.80;76.30;;;;;;4864353;29;21275;-76
2022/06/08 01:50:56;;;;;;;5.23;2.67;;;18.80;76.40;;;;;;4866979;29;20460;-76
2022/06/08 01:53:34;;;;;;;12.27;3.20;;;18.80;76.50;;;;;;4866492;29;20551;-76
2022/06/08 01:56:14;;;;;;;5.70;2.57;;;18.70;76.50;;;;;;4865308;29;20475;-77
2022/06/08 01:58:52;;;;;;;6.30;2.90;;;18.70;76.60;;;;;;4864445;29;20489;-77
2022/06/08 02:01:27;;;;;;;8.83;3.07;;;18.60;76.50;;;;;;4858145;29;20634;-77
2022/06/08 02:04:09;;;;;;;7.60;2.47;;;18.60;76.50;;;;;;4865776;29;20470;-77
2022/06/08 02:06:46;;;;;;;7.40;2.93;;;18.60;76.70;;;;;;4868026;29;20466;-76
2022/06/08 02:09:22;;;;;;;6.00;2.83;;;18.60;76.70;;;;;;4869757;29;20465;-77
2022/06/08 02:11:58;;;;;;;10.00;2.80;;;18.60;76.60;;;;;;4869620;29;20893;-77
2022/06/08 02:14:37;;;;;;;6.50;3.00;;;18.60;76.60;;;;;;4864227;29;20513;-77
2022/06/08 02:17:10;;;;;;;6.43;2.90;;;18.50;76.50;;;;;;4857307;29;20490;-77
2022/06/08 02:19:43;;;;;;;4.90;2.40;;;18.50;76.50;;;;;;4873477;29;20486;-77
2022/06/08 02:22:18;;;;;;;6.20;3.00;;;18.40;76.70;;;;;;4864170;29;20550;-76
2022/06/08 02:24:53;;;;;;;5.10;2.87;;;18.40;76.80;;;;;;4870310;29;20998;-77
2022/06/08 02:27:26;;;;;;;7.43;2.53;;;18.40;76.70;;;;;;4867747;29;20497;-76
2022/06/08 02:29:59;;;;;;;5.33;2.90;;;18.30;76.80;;;;;;4882182;29;20472;-77
2022/06/08 02:35:24;;;;;;;6.57;3.10;;;18.30;77.00;;;;;;4868121;29;20462;-76
2022/06/08 02:37:58;;;;;;;7.87;3.00;;;18.30;77.00;;;;;;4868970;29;20475;-77
2022/06/08 02:40:30;;;;;;;5.67;2.40;;;18.30;77.00;;;;;;4870529;29;20489;-77
2022/06/08 02:43:10;;;;;;;6.40;2.57;;;18.30;77.10;;;;;;4858402;29;21038;-76
2022/06/08 02:45:42;;;;;;;6.10;2.90;;;18.30;77.20;;;;;;4857252;29;20464;-77
2022/06/08 02:48:14;;;;;;;7.53;3.30;;;18.30;77.20;;;;;;4862186;29;20499;-76
2022/06/08 02:50:51;;;;;;;6.43;3.07;;;18.40;77.20;;;;;;4870179;29;20465;-77
2022/06/08 02:53:57;;;;;;;5.87;2.67;;;18.40;77.30;;;;;;4868528;29;20470;-77
2022/06/08 02:56:47;;;;;;;6.23;2.90;;;18.40;77.50;;;;;;4864952;29;20492;-77
2022/06/08 02:59:22;;;;;;;4.90;2.60;;;18.40;77.40;;;;;;4871071;29;21078;-76
2022/06/08 03:01:59;;;;;;;12.67;3.73;;;18.50;77.40;;;;;;4869808;29;20534;-76
2022/06/08 03:04:31;;;;;;;5.50;3.30;;;18.50;77.50;;;;;;4867136;29;20467;-77
2022/06/08 03:07:05;;;;;;;6.40;2.87;;;18.50;77.40;;;;;;4869698;29;20494;-75
2022/06/08 03:09:34;;;;;;;5.80;3.03;;;18.50;77.40;;;;;;4877768;29;20464;-75
2022/06/08 03:12:06;;;;;;;6.33;2.80;;;18.50;77.40;;;;;;4863323;29;20497;-78
2022/06/08 03:14:36;;;;;;;6.90;3.57;;;18.50;77.40;;;;;;4878284;29;20477;-76
2022/06/08 03:17:07;;;;;;;7.80;3.73;;;18.40;77.50;;;;;;4863235;29;20868;-75
2022/06/08 03:19:37;;;;;;;5.70;3.10;;;18.40;77.30;;;;;;4868320;29;20567;-76
2022/06/08 03:22:06;;;;;;;6.73;2.80;;;18.40;77.30;;;;;;4865829;29;20906;-75
2022/06/08 03:24:35;;;;;;;5.60;3.20;;;18.30;77.50;;;;;;4869173;29;20471;-76
2022/06/08 03:27:08;;;;;;;5.80;3.03;;;18.30;77.40;;;;;;4872471;29;20518;-76
2022/06/08 03:29:39;;;;;;;9.83;3.30;;;18.30;77.50;;;;;;4874299;29;20482;-77
2022/06/08 03:32:08;;;;;;;6.20;3.43;;;18.30;77.70;;;;;;4861689;29;20491;-76
2022/06/08 03:34:37;;;;;;;8.47;3.30;;;18.30;77.70;;;;;;4858649;29;20459;-76
2022/06/08 03:37:06;;;;;;;6.60;3.23;;;18.30;77.60;;;;;;4864712;29;20573;-76
2022/06/08 03:39:36;;;;;;;6.87;2.90;;;18.30;77.50;;;;;;4859882;29;20489;-77
2022/06/08 03:42:05;;;;;;;6.83;3.73;;;18.30;77.60;;;;;;4881615;29;20463;-76
2022/06/08 03:44:33;;;;;;;6.50;3.60;;;18.40;77.60;;;;;;4883087;29;20466;-76
2022/06/08 03:47:08;;;;;;;7.40;3.60;;;18.40;77.60;;;;;;4857871;29;20573;-76
2022/06/08 03:49:36;;;;;;;7.03;3.70;;;18.40;77.50;;;;;;4882006;29;20569;-77
2022/06/08 03:52:09;;;;;;;9.33;3.73;;;18.40;77.60;;;;;;4869943;29;21004;-76
2022/06/08 03:54:41;;;;;;;6.13;3.50;;;18.40;77.50;;;;;;4868659;29;20996;-76
2022/06/08 03:57:11;;;;;;;9.17;4.07;;;18.40;77.50;;;;;;4863224;29;20498;-75
2022/06/08 03:59:40;;;;;;;7.30;3.27;;;18.40;77.40;;;;;;4862208;29;20491;-76
2022/06/08 04:02:12;;;;;;;7.23;3.70;;;18.40;77.50;;;;;;4876948;29;20511;-76
2022/06/08 04:04:44;;;;;;;6.60;3.40;;;18.40;77.70;;;;;;4859595;29;20499;-75
2022/06/08 04:07:14;;;;;;;7.70;3.13;;;18.40;77.70;;;;;;4863964;29;21015;-76
2022/06/08 04:09:46;;;;;;;5.37;3.37;;;18.50;77.70;;;;;;4883356;29;20472;-77
2022/06/08 04:12:16;;;;;;;7.70;3.30;;;18.60;77.70;;;;;;4876896;29;20474;-75
2022/06/08 04:14:45;;;;;;;6.17;2.90;;;18.60;77.70;;;;;;4862288;29;20489;-75
2022/06/08 04:17:16;;;;;;;9.70;3.60;;;18.70;77.60;;;;;;4855834;29;20520;-77
2022/06/08 04:19:47;;;;;;;6.07;3.43;;;18.80;77.50;;;;;;4860041;29;20488;-75
2022/06/08 04:22:17;;;;;;;7.10;3.47;;;18.80;77.50;;;;;;4856492;29;20502;-74
2022/06/08 04:24:45;;;;;;;8.70;3.90;;;18.90;77.40;;;;;;4878286;29;20455;-76
2022/06/08 04:27:16;;;;;;;10.13;3.50;;;18.90;77.30;;;;;;4865088;29;20544;-76
2022/06/08 04:29:48;;;;;;;6.10;2.50;;;18.90;77.20;;;;;;4874040;29;20480;-75
2022/06/08 04:32:17;;;;;;;7.03;2.80;;;18.90;77.10;;;;;;4860850;29;20521;-75
2022/06/08 04:34:48;;;;;;;5.13;2.47;;;18.90;77.00;;;;;;4864678;29;20875;-74
2022/06/08 04:37:16;;;;;;;5.73;3.27;;;18.90;77.00;;;;;;4865355;29;20864;-75
2022/06/08 04:39:49;;;;;;;6.73;2.80;;;18.90;77.00;;;;;;4867536;29;20488;-76
2022/06/08 04:42:23;;;;;;;5.83;2.93;;;19.00;77.10;;;;;;4851935;29;21075;-76
2022/06/08 04:44:55;;;;;;;8.77;3.20;;;19.10;77.20;;;;;;4862677;29;20497;-75
2022/06/08 04:47:24;;;;;;;7.30;3.17;;;19.20;77.40;;;;;;4862110;29;20924;-76
2022/06/08 04:49:52;;;;;;;5.20;2.50;;;19.40;77.20;;;;;;4867865;29;20461;-76
2022/06/08 04:52:23;;;;;;;5.93;2.50;;;19.60;77.10;;;;;;4874273;29;20530;-77
2022/06/08 04:54:51;;;;;;;7.17;2.63;;;19.70;76.90;;;;;;4869089;29;20453;-76
2022/06/08 04:57:19;;;;;;;7.00;2.70;;;19.90;76.70;;;;;;4872818;29;20492;-76
2022/06/08 04:59:52;;;;;;;5.43;3.00;;;20.00;76.50;;;;;;4869563;29;20470;-76
2022/06/08 05:02:46;;;;;;;5.03;2.43;;;20.20;76.30;;;;;;4869592;29;21020;-77
2022/06/08 05:05:24;;;;;;;9.50;3.07;;;20.20;75.80;;;;;;4866630;29;20469;-76
2022/06/08 05:07:54;;;;;;;7.33;2.70;;;20.30;75.70;;;;;;4878221;29;21298;-77
2022/06/08 05:10:25;;;;;;;10.00;3.23;;;20.30;75.60;;;;;;4866176;29;20524;-76
2022/06/08 05:12:55;;;;;;;6.93;3.20;;;20.40;75.50;;;;;;4874910;29;20846;-76
2022/06/08 05:15:26;;;;;;;6.90;2.80;;;20.50;75.30;;;;;;4867981;29;20908;-75
2022/06/08 05:17:58;;;;;;;5.27;2.80;;;20.50;75.10;;;;;;4880385;29;20488;-75
2022/06/08 05:20:29;;;;;;;5.20;2.83;;;20.50;74.90;;;;;;4868851;29;20567;-77
2022/06/08 05:22:59;;;;;;;6.20;3.00;;;20.50;74.70;;;;;;4859635;29;20480;-76
2022/06/08 05:25:32;;;;;;;6.70;2.63;;;20.50;74.50;;;;;;4865016;29;21005;-76
2022/06/08 05:28:00;;;;;;;6.17;2.67;;;20.40;74.40;;;;;;4863561;29;20479;-77
2022/06/08 05:30:32;;;;;;;4.73;2.70;;;20.40;74.60;;;;;;4863543;29;20475;-76
2022/06/08 05:33:03;;;;;;;7.17;2.97;;;20.40;74.50;;;;;;4875864;29;20464;-77
2022/06/08 05:35:32;;;;;;;5.30;2.37;;;20.30;74.40;;;;;;4877889;29;20526;-76
2022/06/08 05:38:00;;;;;;;6.67;2.40;;;20.30;74.30;;;;;;4858829;29;20586;-75
2022/06/08 05:40:32;;;;;;;6.43;2.67;;;20.20;74.30;;;;;;4853843;29;21044;-77
2022/06/08 05:43:03;;;;;;;11.23;3.03;;;20.10;74.40;;;;;;4870600;29;20467;-76
2022/06/08 05:45:32;;;;;;;6.00;2.67;;;20.10;74.50;;;;;;4861634;29;20472;-76
2022/06/08 05:48:04;;;;;;;6.33;2.40;;;20.20;74.60;;;;;;4860414;29;20512;-76
2022/06/08 05:50:37;;;;;;;6.00;2.30;;;20.20;75.10;;;;;;4873051;29;20471;-75
2022/06/08 05:53:08;;;;;;;5.80;2.43;;;20.50;74.90;;;;;;4868511;29;20891;-75
2022/06/08 05:55:36;;;;;;;5.23;2.53;;;20.90;76.40;;;;;;4873364;29;21054;-77
2022/06/08 05:58:04;;;;;;;6.63;2.43;;;21.90;75.30;;;;;;4870215;29;20606;-76
2022/06/08 06:00:36;;;;;;;8.60;2.70;;;22.30;72.80;;;;;;4864696;29;21017;-77
2022/06/08 06:03:07;;;;;;;5.57;2.70;;;22.10;71.70;;;;;;4861280;29;20830;-77
2022/06/08 06:05:38;;;;;;;6.00;3.23;;;21.80;71.50;;;;;;4868667;29;21053;-78
2022/06/08 06:08:11;;;;;;;4.50;2.27;;;21.40;71.80;;;;;;4870655;29;20496;-77
2022/06/08 06:10:46;;;;;;;6.20;2.60;;;21.10;72.00;;;;;;4870783;29;20549;-78
2022/06/08 06:13:19;;;;;;;6.03;2.50;;;20.90;72.50;;;;;;4871306;29;20480;-76
2022/06/08 06:15:54;;;;;;;4.27;2.27;;;20.60;72.70;;;;;;4868666;29;20477;-78
2022/06/08 06:18:24;;;;;;;5.13;2.20;;;20.50;72.80;;;;;;4871580;29;20495;-77
2022/06/08 06:21:01;;;;;;;5.27;2.37;;;20.40;73.20;;;;;;4868610;29;20494;-78
2022/06/08 06:24:06;;;;;;;4.47;1.93;;;20.20;73.40;;;;;;4834891;29;20642;-77
2022/06/08 06:26:49;;;;;;;5.20;2.33;;;20.20;73.60;;;;;;4877767;29;20471;-78
2022/06/08 06:29:27;;;;;;;4.70;1.60;;;20.10;73.80;;;;;;4877435;29;20557;-76
2022/06/08 06:32:23;;;;;;;4.30;2.20;;;20.10;74.00;;;;;;4875748;29;20497;-77
2022/06/08 06:34:55;;;;;;;5.93;2.57;;;20.10;74.00;;;;;;4879239;29;21041;-75
2022/06/08 06:37:23;;;;;;;10.40;2.50;;;20.10;74.20;;;;;;4879384;29;20488;-77
2022/06/08 06:39:53;;;;;;;8.33;3.10;;;20.10;74.20;;;;;;4881649;29;20459;-77
2022/06/08 06:42:31;;;;;;;6.33;2.47;;;20.10;74.30;;;;;;4879766;29;20581;-77
2022/06/08 06:45:19;;;;;;;6.73;2.60;;;20.00;74.40;;;;;;4885718;29;20469;-78
2022/06/08 06:47:52;;;;;;;8.13;3.30;;;20.10;74.40;;;;;;4873327;29;20476;-78
2022/06/08 06:50:25;;;;;;;8.90;2.70;;;20.10;74.30;;;;;;4872993;29;20471;-78
2022/06/08 06:52:59;;;;;;;4.70;2.20;;;20.10;74.30;;;;;;4878836;29;20471;-78
2022/06/08 06:55:38;;;;;;;5.10;2.40;;;20.10;74.40;;;;;;4880670;29;20493;-76
2022/06/08 06:58:14;;;;;;;6.10;2.57;;;20.10;74.30;;;;;;4877153;29;20481;-79
2022/06/08 07:00:42;;;;;;;4.80;1.70;;;20.20;74.30;;;;;;4875110;29;20531;-77
2022/06/08 07:03:13;;;;;;;8.53;2.77;;;20.20;74.30;;;;;;4878960;29;20466;-77
2022/06/08 07:05:45;;;;;;;4.87;2.20;;;20.20;74.30;;;;;;4878064;29;20471;-78
2022/06/08 07:08:14;;;;;;;7.60;3.13;;;20.30;74.20;;;;;;4883916;29;20474;-76
2022/06/08 07:10:43;;;;;;;8.70;2.23;;;20.30;74.20;;;;;;4879543;29;20473;-77
2022/06/08 07:13:13;;;;;;;12.53;3.00;;;20.40;74.10;;;;;;4884743;29;20493;-78
2022/06/08 07:15:41;;;;;;;5.03;2.10;;;20.40;74.10;;;;;;4880188;29;20466;-79
2022/06/08 07:18:10;;;;;;;7.30;2.10;;;20.40;74.10;;;;;;4864598;29;20478;-77
2022/06/08 07:20:38;;;;;;;5.87;2.20;;;20.50;74.20;;;;;;4879292;29;20527;-78
2022/06/08 07:23:07;;;;;;;6.73;2.30;;;20.60;74.10;;;;;;4877407;29;20490;-77
2022/06/08 07:25:35;;;;;;;5.90;2.37;;;20.60;74.10;;;;;;4898131;29;20461;-77
2022/06/08 07:28:03;;;;;;;6.40;2.00;;;20.60;74.10;;;;;;4878086;29;20485;-78
2022/06/08 07:30:31;;;;;;;8.40;2.40;;;20.70;74.10;;;;;;4880012;29;21004;-76
2022/06/08 07:32:59;;;;;;;6.53;2.17;;;20.70;74.00;;;;;;4888936;29;20823;-79
2022/06/08 07:35:27;;;;;;;4.80;2.10;;;20.80;74.00;;;;;;4893265;29;20458;-77
2022/06/08 07:37:55;;;;;;;5.20;1.80;;;20.80;74.00;;;;;;4892511;29;20542;-77
2022/06/08 07:40:24;;;;;;;6.37;2.20;;;20.80;74.00;;;;;;4897743;29;20460;-78
2022/06/08 07:42:52;;;;;;;8.63;2.27;;;20.90;73.90;;;;;;4892751;29;20583;-77
2022/06/08 07:45:20;;;;;;;4.80;1.83;;;20.90;73.80;;;;;;4872307;29;20464;-77
2022/06/08 07:50:34;;;;;;;5.60;1.80;;;21.00;73.60;;;;;;4893762;29;20467;-78
2022/06/08 07:53:02;;;;;;;4.77;1.70;;;21.00;73.60;;;;;;4892611;29;20973;-79
2022/06/08 07:55:31;;;;;;;4.80;2.10;;;21.10;73.50;;;;;;4895272;29;20450;-78
2022/06/08 07:58:02;;;;;;;4.60;1.20;;;21.10;73.40;;;;;;4894626;29;20479;-77
2022/06/08 08:00:30;;;;;;;4.50;1.70;;;21.20;73.20;;;;;;4887571;29;20489;-77
2022/06/08 08:02:58;;;;;;;5.37;1.80;;;21.20;73.20;;;;;;4895961;29;20538;-75
2022/06/08 08:05:26;;;;;;;4.17;1.70;;;21.20;73.20;;;;;;4884119;29;20560;-78
2022/06/08 08:07:55;;;;;;;6.10;1.63;;;21.30;73.00;;;;;;4896847;29;20488;-78
2022/06/08 08:10:26;;;;;;;6.13;1.60;;;21.30;72.80;;;;;;4891067;29;20460;-77
2022/06/08 08:12:55;;;;;;;4.20;1.53;;;21.40;72.60;;;;;;4894326;29;21388;-77
2022/06/08 08:15:24;;;;;;;7.40;2.07;;;21.40;72.40;;;;;;4891403;29;20453;-78
2022/06/08 08:17:52;;;;;;;4.60;1.23;;;21.40;72.20;;;;;;4887567;29;20503;-75
2022/06/08 08:20:21;;;;;;;4.10;1.40;;;21.40;71.90;;;;;;4891552;29;20472;-77
2022/06/08 08:22:49;;;;;;;4.23;1.60;;;21.30;71.70;;;;;;4891281;29;20481;-78
2022/06/08 08:25:18;;;;;;;7.50;1.57;;;21.30;71.60;;;;;;4895612;29;20447;-78
2022/06/08 08:27:47;;;;;;;5.20;1.70;;;21.20;71.60;;;;;;4872768;29;20524;-76
2022/06/08 08:30:19;;;;;;;7.30;1.80;;;21.20;71.50;;;;;;4893353;29;20846;-77
2022/06/08 08:32:47;;;;;;;7.17;1.47;;;21.20;71.40;;;;;;4890897;29;20904;-77
2022/06/08 08:35:16;;;;;;;5.30;1.53;;;21.20;71.40;;;;;;4886730;29;20471;-78
2022/06/08 08:37:45;;;;;;;5.13;1.43;;;21.30;71.20;;;;;;4891072;29;20492;-77
2022/06/08 08:40:28;;;;;;;5.90;1.67;;;21.30;70.90;;;;;;4879191;29;20470;-77
2022/06/08 08:42:57;;;;;;;5.70;1.47;;;21.30;70.90;;;;;;4889877;29;20492;-78
2022/06/08 08:45:29;;;;;;;4.37;1.40;;;21.30;70.90;;;;;;4885680;29;21004;-75
2022/06/08 08:48:04;;;;;;;4.77;1.40;;;21.30;70.80;;;;;;4873869;29;20532;-77
2022/06/08 08:50:37;;;;;;;6.40;1.60;;;21.40;70.90;;;;;;4891834;29;20474;-78
2022/06/08 08:53:16;;;;;;;6.57;2.00;;;21.40;70.80;;;;;;4891826;29;20517;-76
2022/06/08 08:55:50;;;;;;;5.97;1.70;;;21.50;70.70;;;;;;4895266;29;20455;-78
2022/06/08 08:58:20;;;;;;;4.00;1.33;;;21.50;70.60;;;;;;4891675;29;20526;-77
2022/06/08 09:00:53;;;;;;;5.03;1.50;;;21.50;69.90;;;;;;4889178;29;20478;-78
2022/06/08 09:03:26;;;;;;;5.47;1.47;;;21.50;69.90;;;;;;4875573;29;20490;-79
2022/06/08 09:05:58;;;;;;;4.43;1.13;;;21.50;69.80;;;;;;4870196;29;20468;-78
2022/06/08 09:08:27;;;;;;;3.80;0.93;;;21.50;69.80;;;;;;4888833;29;20493;-77
2022/06/08 09:11:00;;;;;;;3.93;1.10;;;21.50;69.50;;;;;;4875040;29;20490;-78
2022/06/08 09:13:37;;;;;;;5.83;1.20;;;21.50;69.40;;;;;;4894469;29;20549;-77
2022/06/08 09:16:27;;;;;;;5.63;1.30;;;21.50;69.30;;;;;;4863858;29;21078;-75
2022/06/08 09:18:55;;;;;;;6.40;1.33;;;21.50;69.30;;;;;;4887615;29;20485;-78
2022/06/08 09:21:27;;;;;;;5.90;1.10;;;21.50;69.20;;;;;;4887267;29;20954;-77
2022/06/08 09:23:57;;;;;;;7.00;1.40;;;21.60;69.10;;;;;;4873037;29;20501;-77
2022/06/08 09:26:32;;;;;;;4.70;1.30;;;21.60;69.00;;;;;;4893305;29;20550;-76
2022/06/08 09:29:03;;;;;;;4.03;1.23;;;21.50;68.80;;;;;;4889731;29;20617;-77
2022/06/08 09:31:34;;;;;;;8.23;1.83;;;21.50;68.70;;;;;;4883774;29;21075;-76
2022/06/08 09:34:11;;;;;;;4.90;1.07;;;21.40;68.70;;;;;;4881632;29;20510;-77
2022/06/08 09:36:39;;;;;;;3.67;1.17;;;21.40;68.60;;;;;;4888649;29;20452;-77
2022/06/08 09:39:10;;;;;;;4.13;0.77;;;21.40;68.50;;;;;;4888035;29;20486;-77
2022/06/08 09:41:44;;;;;;;5.43;1.40;;;21.30;68.40;;;;;;4890172;29;21141;-78
2022/06/08 09:44:19;;;;;;;4.27;1.07;;;21.30;68.50;;;;;;4889066;29;20513;-78
2022/06/08 09:53:05;;;;;;;3.80;1.20;;;21.20;68.50;;;;;;4890485;29;21004;-76
2022/06/08 09:55:43;;;;;;;5.10;1.20;;;21.20;68.50;;;;;;4891807;29;20458;-77
2022/06/08 09:58:33;;;;;;;4.47;1.30;;;21.30;68.70;;;;;;4874723;29;20491;-75
2022/06/08 10:01:10;;;;;;;3.53;0.80;;;21.40;68.70;;;;;;4877682;29;20477;-77
2022/06/08 10:03:58;;;;;;;4.27;0.90;;;21.60;68.70;;;;;;4882442;29;20985;-76
2022/06/08 10:06:38;;;;;;;4.40;1.73;;;21.70;68.50;;;;;;4888807;29;20964;-75
2022/06/08 10:09:25;;;;;;;4.50;0.90;;;21.90;68.30;;;;;;4874917;29;20486;-77
2022/06/08 10:12:04;;;;;;;3.37;1.00;;;22.00;68.20;;;;;;4887974;29;20467;-77
2022/06/08 10:14:42;;;;;;;4.37;1.33;;;22.20;67.90;;;;;;4875913;29;20471;-76
2022/06/08 10:17:17;;;;;;;4.43;1.40;;;22.30;67.80;;;;;;4882958;29;21105;-78
2022/06/08 10:19:59;;;;;;;6.90;1.00;;;22.40;67.50;;;;;;4875789;29;20552;-77
2022/06/08 10:22:31;;;;;;;4.20;1.30;;;22.50;67.30;;;;;;4879740;29;20472;-77
2022/06/08 10:25:04;;;;;;;6.30;1.10;;;22.50;67.30;;;;;;4880634;29;20466;-77
2022/06/08 10:27:37;;;;;;;4.47;1.00;;;22.60;67.20;;;;;;4881893;29;21104;-75
2022/06/08 10:30:15;;;;;;;3.50;0.83;;;22.70;67.00;;;;;;4875145;29;20512;-75
2022/06/08 10:32:50;;;;;;;3.30;1.00;;;22.80;66.70;;;;;;4852599;29;20514;-77
2022/06/08 10:35:27;;;;;;;6.27;1.20;;;22.80;66.60;;;;;;4853407;29;20468;-76
2022/06/08 10:37:56;;;;;;;9.00;1.40;;;22.80;66.20;;;;;;4871663;29;20484;-77
2022/06/08 10:40:36;;;;;;;3.90;1.20;;;22.90;66.10;;;;;;4872950;29;20474;-78
2022/06/08 10:43:05;;;;;;;4.73;1.37;;;22.90;66.10;;;;;;4865705;29;20495;-76
2022/06/08 10:45:52;;;;;;;3.80;1.10;;;22.90;65.70;;;;;;4861664;29;20904;-76
2022/06/08 10:48:36;;;;;;;3.50;0.90;;;22.80;65.70;;;;;;4849875;29;20487;-74
2022/06/08 10:51:39;;;;;;;3.77;1.33;;;22.80;65.60;;;;;;4852157;29;20471;-77
2022/06/08 10:57:51;;;;;;;7.80;1.60;;;22.80;65.60;;;;;;4875275;29;20492;-77
2022/06/08 11:01:01;;;;;;;4.53;1.07;;;22.80;65.40;;;;;;4823348;29;20855;-77
2022/06/08 11:03:55;;;;;;;4.30;1.27;;;22.90;65.20;;;;;;4862292;29;20498;-77
2022/06/08 11:06:58;;;;;;;3.93;1.20;;;22.90;65.30;;;;;;4871385;29;20521;-76
2022/06/08 11:09:54;;;;;;;3.50;1.10;;;22.90;65.10;;;;;;4810436;29;21002;-75
2022/06/08 11:12:32;;;;;;;6.10;1.63;;;22.90;65.00;;;;;;4886342;29;20555;-76
2022/06/08 11:15:15;;;;;;;4.87;1.20;;;23.00;64.80;;;;;;4878003;29;21188;-75
2022/06/08 11:17:53;;;;;;;4.10;1.53;;;23.00;64.60;;;;;;4880552;29;20486;-77
2022/06/08 11:20:31;;;;;;;9.20;1.93;;;23.10;64.30;;;;;;4879917;29;20463;-79
2022/06/08 11:23:05;;;;;;;4.30;1.33;;;23.10;64.30;;;;;;4868710;29;20461;-75
2022/06/08 11:25:45;;;;;;;4.13;1.10;;;23.10;64.30;;;;;;4874442;29;20481;-77
2022/06/08 11:28:30;;;;;;;6.40;1.40;;;23.20;64.10;;;;;;4872660;29;20498;-76
2022/06/08 11:31:00;;;;;;;8.13;2.00;;;23.20;63.80;;;;;;4870937;29;20490;-75
2022/06/08 11:33:50;;;;;;;5.60;1.27;;;23.30;63.70;;;;;;4872199;29;20495;-77
2022/06/08 11:36:54;;;;;;;4.50;1.20;;;23.40;63.50;;;;;;4874208;29;20472;-76
2022/06/08 11:39:29;;;;;;;4.10;1.20;;;23.40;63.40;;;;;;4856809;29;20477;-77
2022/06/08 11:42:01;;;;;;;10.60;1.10;;;23.40;63.30;;;;;;4870608;29;20481;-77
2022/06/08 11:44:35;;;;;;;5.50;1.23;;;23.40;63.30;;;;;;4868239;29;21013;-77
2022/06/08 11:47:14;;;;;;;6.03;1.50;;;23.50;63.20;;;;;;4852232;29;20498;-77
2022/06/08 11:49:45;;;;;;;4.67;0.90;;;23.50;63.10;;;;;;4869472;29;20481;-77
2022/06/08 11:52:28;;;;;;;7.03;1.10;;;23.60;62.90;;;;;;4852817;29;20474;-77
2022/06/08 11:55:04;;;;;;;5.23;1.00;;;23.60;62.90;;;;;;4873416;29;20458;-77
2022/06/08 11:57:33;;;;;;;3.10;0.70;;;23.70;62.80;;;;;;4873209;29;20478;-77
2022/06/08 12:00:03;;;;;;;4.53;1.03;;;23.70;62.60;;;;;;4871763;29;20512;-77
2022/06/08 12:02:39;;;;;;;4.80;1.03;;;23.80;62.40;;;;;;4873503;29;20479;-76
2022/06/08 12:05:10;;;;;;;13.00;1.10;;;23.80;61.90;;;;;;4872815;29;20862;-77
2022/06/08 12:07:45;;;;;;;4.67;1.10;;;23.80;61.80;;;;;;4858457;29;20578;-77
2022/06/08 12:10:18;;;;;;;5.77;1.60;;;23.80;61.50;;;;;;4870873;29;20467;-77
2022/06/08 12:12:48;;;;;;;5.27;1.00;;;23.80;61.50;;;;;;4870999;29;20480;-78
2022/06/08 12:15:43;;;;;;;5.30;1.10;;;23.80;61.20;;;;;;4871818;29;20469;-76
2022/06/08 12:18:26;;;;;;;4.30;1.20;;;23.80;60.60;;;;;;4872895;29;20502;-78
2022/06/08 12:21:05;;;;;;;4.30;0.80;;;23.90;60.90;;;;;;4869668;29;20458;-76
2022/06/08 12:23:42;;;;;;;3.40;0.90;;;23.90;60.70;;;;;;4856069;29;20482;-78
2022/06/08 12:26:22;;;;;;;4.50;0.97;;;23.90;60.50;;;;;;4872861;29;20472;-79
2022/06/08 12:28:59;;;;;;;10.37;1.07;;;23.90;60.20;;;;;;4875192;29;20493;-79
2022/06/08 12:31:31;;;;;;;4.33;1.10;;;23.90;60.10;;;;;;4869790;29;20902;-77
2022/06/08 12:34:27;;;;;;;5.60;1.00;;;23.80;60.00;;;;;;4871697;29;20615;-76
2022/06/08 12:36:55;;;;;;;6.10;0.70;;;23.80;59.60;;;;;;4854061;29;20471;-76
2022/06/08 12:39:27;;;;;;;3.60;0.67;;;23.80;59.60;;;;;;4870232;29;20464;-79
2022/06/08 12:41:57;;;;;;;5.63;0.90;;;23.80;59.30;;;;;;4871833;29;20498;-77
2022/06/08 12:44:26;;;;;;;3.60;0.87;;;23.80;59.10;;;;;;4854170;29;20582;-76
2022/06/08 12:46:59;;;;;;;5.07;1.50;;;23.70;59.10;;;;;;4871034;29;20483;-77
2022/06/08 12:49:40;;;;;;;7.77;1.10;;;23.70;59.00;;;;;;4872669;29;20999;-78
2022/06/08 12:52:20;;;;;;;3.80;0.97;;;23.70;59.10;;;;;;4874279;29;20478;-79
2022/06/08 12:54:49;;;;;;;4.27;1.00;;;23.80;59.10;;;;;;4861863;29;20490;-77
2022/06/08 12:57:20;;;;;;;4.43;1.10;;;23.80;59.20;;;;;;4869843;29;20498;-78
2022/06/08 12:59:53;;;;;;;5.73;0.90;;;23.80;59.20;;;;;;4870999;29;20480;-76
2022/06/08 13:02:23;;;;;;;7.47;1.40;;;23.80;59.10;;;;;;4871381;29;20588;-78
2022/06/08 13:04:52;;;;;;;3.90;1.00;;;23.90;59.20;;;;;;4854087;29;20480;-77
2022/06/08 13:07:33;;;;;;;6.43;1.40;;;23.90;59.30;;;;;;4869534;29;20539;-76
2022/06/08 13:10:02;;;;;;;7.10;1.47;;;23.90;59.30;;;;;;4871733;29;20886;-77
2022/06/08 13:12:36;;;;;;;4.63;1.20;;;23.90;59.40;;;;;;4870698;29;20471;-77
2022/06/08 13:15:12;;;;;;;6.30;1.60;;;24.00;59.40;;;;;;4870559;29;20467;-76
2022/06/08 13:17:39;;;;;;;5.40;1.57;;;24.00;59.50;;;;;;4871219;29;20491;-77
2022/06/08 13:20:11;;;;;;;4.90;1.30;;;24.10;59.50;;;;;;4873377;29;20462;-78
2022/06/08 13:22:39;;;;;;;5.97;1.23;;;24.10;59.40;;;;;;4855322;29;20472;-76
2022/06/08 13:25:08;;;;;;;6.00;2.03;;;24.10;59.30;;;;;;4866987;29;20487;-77
2022/06/08 13:27:38;;;;;;;6.00;1.20;;;24.10;59.20;;;;;;4870137;29;20494;-78
2022/06/08 13:30:07;;;;;;;4.47;1.10;;;24.00;59.20;;;;;;4869083;29;20479;-76
2022/06/08 13:32:34;;;;;;;4.80;1.10;;;24.00;59.00;;;;;;4870737;29;20500;-77
2022/06/08 13:35:03;;;;;;;4.97;1.30;;;24.00;58.90;;;;;;4868394;29;20995;-77